Time;durP1;ratioP1;P1;durP2;ratioP2;P2;SDS_P1;SDS_P2;PMS_P1;PMS_P2;Temp;Humidity;BMP_temperature;BMP_pressure;BME280_temperature;BME280_humidity;BME280_pressure;Samples;Min_cycle;Max_cycle;Signal;HPM_P1;HPM_P2
2022/07/20 00:01:02;;;;;;;5.13;3.28;;;23.50;55.80;;;;;;5020035;28;20549;-68
2022/07/20 00:03:29;;;;;;;3.03;2.72;;;23.40;55.40;;;;;;5018980;28;20037;-67
2022/07/20 00:05:55;;;;;;;4.78;2.60;;;23.40;55.80;;;;;;5018331;28;20120;-67
2022/07/20 00:11:21;;;;;;;4.57;2.97;;;23.40;55.10;;;;;;5017597;28;20037;-67
2022/07/20 00:14:01;;;;;;;4.05;3.30;;;23.40;55.90;;;;;;5018137;28;20033;-67
2022/07/20 00:16:29;;;;;;;5.00;2.97;;;23.40;55.80;;;;;;5022193;28;20449;-67
2022/07/20 00:18:55;;;;;;;4.22;3.20;;;23.30;55.80;;;;;;5023498;28;20030;-67
2022/07/20 00:21:21;;;;;;;5.20;2.90;;;23.30;55.90;;;;;;5019425;28;20060;-67
2022/07/20 00:23:47;;;;;;;5.43;2.70;;;23.30;55.60;;;;;;5020009;28;20037;-66
2022/07/20 00:26:13;;;;;;;3.60;2.75;;;23.30;55.50;;;;;;5017202;28;20522;-66
2022/07/20 00:28:39;;;;;;;4.10;2.72;;;23.30;55.60;;;;;;5017347;28;20028;-66
2022/07/20 00:31:05;;;;;;;4.38;3.15;;;23.30;56.20;;;;;;5020978;28;20885;-67
2022/07/20 00:33:31;;;;;;;4.03;3.33;;;23.30;55.90;;;;;;5023545;28;20053;-66
2022/07/20 00:35:56;;;;;;;5.15;2.65;;;23.30;56.20;;;;;;5022808;28;20399;-67
2022/07/20 00:38:22;;;;;;;4.97;3.50;;;23.30;56.10;;;;;;5019441;28;20398;-67
2022/07/20 00:40:49;;;;;;;4.95;3.35;;;23.30;55.90;;;;;;5020004;28;20048;-66
2022/07/20 00:43:15;;;;;;;7.80;3.15;;;23.30;55.80;;;;;;5016160;28;20901;-67
2022/07/20 00:45:41;;;;;;;4.78;2.92;;;23.30;55.60;;;;;;5017484;28;20034;-67
2022/07/20 00:48:06;;;;;;;5.65;3.10;;;23.30;55.40;;;;;;5013622;28;20041;-66
2022/07/20 00:50:32;;;;;;;6.07;3.00;;;23.30;55.90;;;;;;5022709;28;20029;-67
2022/07/20 00:53:00;;;;;;;4.45;3.00;;;23.30;55.60;;;;;;5022741;28;20040;-67
2022/07/20 00:55:26;;;;;;;6.03;3.47;;;23.30;56.10;;;;;;5021715;28;20071;-67
2022/07/20 00:57:52;;;;;;;5.90;3.53;;;23.30;55.50;;;;;;5020066;28;20848;-66
2022/07/20 01:00:18;;;;;;;3.00;2.70;;;23.30;55.60;;;;;;5017294;28;20034;-66
2022/07/20 01:02:44;;;;;;;5.32;2.80;;;23.30;55.90;;;;;;5018134;28;20854;-67
2022/07/20 01:05:13;;;;;;;6.22;3.00;;;23.30;55.80;;;;;;5013640;28;20037;-67
2022/07/20 01:07:44;;;;;;;3.70;3.05;;;23.20;55.80;;;;;;5011431;28;20037;-67
2022/07/20 01:10:12;;;;;;;4.40;3.10;;;23.20;56.50;;;;;;5018631;28;20825;-66
2022/07/20 01:12:38;;;;;;;6.88;3.08;;;23.20;56.80;;;;;;5019650;28;20595;-67
2022/07/20 01:15:07;;;;;;;5.05;3.20;;;23.10;56.90;;;;;;5022445;28;20216;-67
2022/07/20 01:17:33;;;;;;;3.33;3.00;;;23.00;56.80;;;;;;5020326;28;20025;-66
2022/07/20 01:19:59;;;;;;;3.35;2.83;;;23.00;56.90;;;;;;5019585;28;20473;-67
2022/07/20 01:22:25;;;;;;;3.75;3.03;;;23.00;57.00;;;;;;5016014;28;20123;-68
2022/07/20 01:24:50;;;;;;;6.45;3.17;;;22.90;57.30;;;;;;5017439;28;20034;-67
2022/07/20 01:27:16;;;;;;;5.30;3.45;;;22.90;57.10;;;;;;5017337;28;20099;-67
2022/07/20 01:29:42;;;;;;;4.45;3.38;;;22.90;56.80;;;;;;5022713;28;20209;-67
2022/07/20 01:32:08;;;;;;;5.25;3.30;;;22.90;57.70;;;;;;5021080;28;20069;-67
2022/07/20 01:34:33;;;;;;;3.90;2.92;;;22.80;57.60;;;;;;5020347;28;20029;-67
2022/07/20 01:37:00;;;;;;;4.97;3.45;;;22.80;57.50;;;;;;5017934;28;20033;-66
2022/07/20 01:39:25;;;;;;;4.60;2.88;;;22.80;57.50;;;;;;5018798;28;20021;-66
2022/07/20 01:41:53;;;;;;;4.07;3.40;;;22.80;57.90;;;;;;5015694;28;20127;-66
2022/07/20 01:44:21;;;;;;;4.18;3.05;;;22.70;58.30;;;;;;5013061;28;20041;-67
2022/07/20 01:46:48;;;;;;;5.68;3.33;;;22.70;58.30;;;;;;5018072;28;20148;-67
2022/07/20 01:49:15;;;;;;;5.97;3.78;;;22.70;57.40;;;;;;5020937;28;20061;-67
2022/07/20 01:51:42;;;;;;;4.95;3.13;;;22.70;57.20;;;;;;5020343;28;20039;-67
2022/07/20 01:54:07;;;;;;;5.10;3.38;;;22.70;57.90;;;;;;5018434;28;20029;-66
2022/07/20 01:56:33;;;;;;;3.42;2.95;;;22.70;57.90;;;;;;5019098;28;20036;-66
2022/07/20 01:58:59;;;;;;;5.30;3.83;;;22.60;58.30;;;;;;5015964;28;20587;-66
2022/07/20 02:01:25;;;;;;;3.83;3.00;;;22.60;58.20;;;;;;5015063;28;20457;-67
2022/07/20 02:03:50;;;;;;;6.63;3.10;;;22.60;58.40;;;;;;5014062;28;20196;-67
2022/07/20 02:06:16;;;;;;;5.65;3.30;;;22.60;58.40;;;;;;5019850;28;20140;-66
2022/07/20 02:08:42;;;;;;;5.90;3.40;;;22.50;58.40;;;;;;5020864;28;20036;-67
2022/07/20 02:11:08;;;;;;;5.55;3.45;;;22.50;58.70;;;;;;5019498;28;20056;-66
2022/07/20 02:13:35;;;;;;;6.82;3.70;;;22.50;58.20;;;;;;5018610;28;20041;-67
2022/07/20 02:16:23;;;;;;;5.45;3.42;;;22.50;58.40;;;;;;5016926;28;20013;-66
2022/07/20 02:18:51;;;;;;;4.18;3.45;;;22.50;58.50;;;;;;5018388;28;20037;-66
2022/07/20 02:34:00;;;;;;;5.60;3.30;;;22.30;59.10;;;;;;4940405;28;20055;-67
2022/07/20 02:36:26;;;;;;;4.75;3.72;;;22.40;59.40;;;;;;4940362;29;20454;-67
2022/07/20 02:38:51;;;;;;;5.13;3.72;;;22.30;59.30;;;;;;4939200;28;20874;-66
2022/07/20 02:41:17;;;;;;;5.55;3.53;;;22.30;58.80;;;;;;4940107;28;20043;-67
2022/07/20 02:43:43;;;;;;;5.85;3.58;;;22.30;59.10;;;;;;4936262;29;20030;-67
2022/07/20 02:46:09;;;;;;;3.85;3.30;;;22.30;59.30;;;;;;4937442;29;20031;-66
2022/07/20 02:48:35;;;;;;;3.83;3.13;;;22.30;59.10;;;;;;4942529;28;20035;-66
2022/07/20 02:51:01;;;;;;;7.00;3.38;;;22.30;59.00;;;;;;4942872;28;20185;-66
2022/07/20 02:53:27;;;;;;;4.55;3.33;;;22.20;58.80;;;;;;4941842;29;20098;-67
2022/07/20 02:55:53;;;;;;;5.10;3.78;;;22.20;59.30;;;;;;4939532;29;20059;-67
2022/07/20 02:58:19;;;;;;;5.53;3.60;;;22.30;59.40;;;;;;4939610;28;20734;-67
2022/07/20 03:00:44;;;;;;;4.10;3.50;;;22.20;59.20;;;;;;4937759;29;20056;-67
2022/07/20 03:03:10;;;;;;;4.68;3.60;;;22.30;59.30;;;;;;4933581;29;20883;-67
2022/07/20 03:05:37;;;;;;;4.78;3.45;;;22.30;59.90;;;;;;4939317;28;20487;-67
2022/07/20 03:08:05;;;;;;;3.97;3.40;;;22.20;59.70;;;;;;4941337;28;20402;-67
2022/07/20 03:10:31;;;;;;;6.50;3.78;;;22.20;59.90;;;;;;4940717;29;20031;-67
2022/07/20 03:12:56;;;;;;;5.25;3.70;;;22.20;60.30;;;;;;4938911;29;20575;-66
2022/07/20 03:15:22;;;;;;;5.93;3.58;;;22.20;60.00;;;;;;4937854;29;20865;-67
2022/07/20 03:17:51;;;;;;;5.47;3.53;;;22.20;60.30;;;;;;4937412;29;20039;-66
2022/07/20 03:20:23;;;;;;;7.72;3.85;;;22.10;60.30;;;;;;4934935;28;20439;-67
2022/07/20 03:22:49;;;;;;;5.05;3.90;;;22.10;60.50;;;;;;4933555;28;20639;-67
2022/07/20 03:25:15;;;;;;;6.07;3.72;;;22.10;60.50;;;;;;4941005;28;20050;-67
2022/07/20 03:27:41;;;;;;;5.43;3.75;;;22.10;60.30;;;;;;4942188;28;20055;-67
2022/07/20 03:30:07;;;;;;;6.55;3.60;;;22.00;60.50;;;;;;4939924;28;20518;-67
2022/07/20 03:32:33;;;;;;;5.07;3.70;;;22.00;60.90;;;;;;4938955;28;20042;-66
2022/07/20 03:34:59;;;;;;;6.20;4.20;;;22.00;60.80;;;;;;4937626;28;20035;-67
2022/07/20 03:37:26;;;;;;;5.63;3.85;;;22.00;61.00;;;;;;4939582;29;20039;-67
2022/07/20 03:39:52;;;;;;;6.03;3.95;;;22.00;61.10;;;;;;4938409;28;20903;-67
2022/07/20 03:42:18;;;;;;;10.05;3.92;;;21.90;60.90;;;;;;4933818;29;20039;-67
2022/07/20 03:44:44;;;;;;;6.78;3.88;;;21.90;61.10;;;;;;4942095;28;20094;-67
2022/07/20 03:47:10;;;;;;;4.53;3.53;;;21.90;61.20;;;;;;4939300;28;20039;-67
2022/07/20 03:49:35;;;;;;;5.90;4.03;;;21.90;61.20;;;;;;4940297;28;20483;-66
2022/07/20 03:52:02;;;;;;;7.90;4.20;;;21.90;61.40;;;;;;4937272;28;20038;-66
2022/07/20 03:54:27;;;;;;;5.07;3.80;;;21.90;61.30;;;;;;4938336;29;20828;-66
2022/07/20 03:56:53;;;;;;;6.25;3.95;;;21.90;61.80;;;;;;4935574;29;20031;-67
2022/07/20 03:59:19;;;;;;;7.03;4.10;;;21.90;61.90;;;;;;4935170;28;20083;-67
2022/07/20 04:01:44;;;;;;;5.35;3.90;;;21.80;62.10;;;;;;4935600;28;20039;-67
2022/07/20 04:04:10;;;;;;;8.63;4.10;;;21.80;62.00;;;;;;4941832;28;20058;-67
2022/07/20 04:06:37;;;;;;;6.10;3.72;;;21.80;62.30;;;;;;4941444;28;20054;-67
2022/07/20 04:09:03;;;;;;;8.10;4.43;;;21.80;62.10;;;;;;4938641;28;20039;-67
2022/07/20 04:11:28;;;;;;;5.65;4.28;;;21.80;62.30;;;;;;4938976;29;20031;-67
2022/07/20 04:13:54;;;;;;;4.88;3.55;;;21.80;62.40;;;;;;4936756;28;20047;-66
2022/07/20 04:16:20;;;;;;;5.32;3.97;;;21.80;62.30;;;;;;4936185;29;20054;-67
2022/07/20 04:18:46;;;;;;;4.45;3.75;;;21.80;62.50;;;;;;4935335;28;20060;-67
2022/07/20 04:21:12;;;;;;;5.38;3.60;;;21.80;62.50;;;;;;4940076;29;20034;-66
2022/07/20 04:23:38;;;;;;;6.65;3.97;;;21.90;62.60;;;;;;4940351;29;20733;-66
2022/07/20 04:26:03;;;;;;;6.57;4.05;;;21.90;62.80;;;;;;4940296;29;20503;-66
2022/07/20 04:28:29;;;;;;;5.45;4.03;;;21.90;62.80;;;;;;4939800;28;20118;-67
2022/07/20 04:30:55;;;;;;;4.45;3.42;;;21.90;63.80;;;;;;4938015;28;20043;-67
2022/07/20 04:33:21;;;;;;;6.90;4.07;;;21.90;63.20;;;;;;4935621;29;20035;-67
2022/07/20 04:35:47;;;;;;;6.43;3.60;;;21.90;63.00;;;;;;4934933;28;20067;-66
2022/07/20 04:38:13;;;;;;;7.78;4.15;;;22.00;62.80;;;;;;4935775;28;20027;-67
2022/07/20 04:40:40;;;;;;;4.25;3.75;;;22.00;63.00;;;;;;4944768;28;20043;-67
2022/07/20 04:43:06;;;;;;;4.50;3.50;;;22.10;62.90;;;;;;4943065;29;20038;-67
2022/07/20 04:45:32;;;;;;;6.88;3.85;;;22.10;63.20;;;;;;4944434;29;20028;-67
2022/07/20 04:47:58;;;;;;;6.28;3.95;;;22.10;62.50;;;;;;4941550;29;20032;-67
2022/07/20 04:50:24;;;;;;;5.50;3.75;;;22.20;63.30;;;;;;4940121;28;20042;-67
2022/07/20 04:52:50;;;;;;;8.98;4.20;;;22.20;63.00;;;;;;4937794;28;20522;-67
2022/07/20 04:55:15;;;;;;;4.78;3.78;;;22.30;62.90;;;;;;4942533;29;20032;-67
2022/07/20 04:57:41;;;;;;;4.72;3.70;;;22.30;63.30;;;;;;4937341;28;20049;-67
2022/07/20 05:00:08;;;;;;;5.10;3.80;;;22.40;63.40;;;;;;4944368;28;20090;-67
2022/07/20 05:02:34;;;;;;;7.30;4.53;;;22.40;63.10;;;;;;4944097;28;20055;-67
2022/07/20 05:04:59;;;;;;;6.15;4.32;;;22.50;63.50;;;;;;4944017;29;20043;-67
2022/07/20 05:07:25;;;;;;;4.47;4.07;;;22.50;63.80;;;;;;4942734;29;20129;-66
2022/07/20 05:09:51;;;;;;;7.00;4.00;;;22.50;63.80;;;;;;4940923;28;20086;-67
2022/07/20 05:12:17;;;;;;;5.50;3.75;;;22.60;63.50;;;;;;4937538;29;20149;-67
2022/07/20 05:14:42;;;;;;;5.97;4.20;;;22.60;63.60;;;;;;4938441;28;20455;-66
2022/07/20 05:17:08;;;;;;;5.10;4.07;;;22.60;63.30;;;;;;4938598;29;20039;-67
2022/07/20 05:19:34;;;;;;;5.95;4.50;;;22.60;63.40;;;;;;4944230;28;20059;-67
2022/07/20 05:22:00;;;;;;;4.75;3.67;;;22.70;63.20;;;;;;4942087;28;20049;-67
2022/07/20 05:24:25;;;;;;;4.90;3.97;;;22.70;63.30;;;;;;4941714;29;20053;-67
2022/07/20 05:26:52;;;;;;;7.68;4.07;;;22.70;63.10;;;;;;4941389;29;20038;-67
2022/07/20 05:29:17;;;;;;;6.40;4.07;;;22.80;63.10;;;;;;4941470;28;20039;-67
2022/07/20 05:31:43;;;;;;;5.43;4.05;;;22.80;63.10;;;;;;4938256;28;20042;-66
2022/07/20 05:34:09;;;;;;;4.95;3.70;;;22.90;63.10;;;;;;4934911;29;20210;-66
2022/07/20 05:36:35;;;;;;;5.05;3.95;;;22.90;62.90;;;;;;4941423;29;20035;-67
2022/07/20 05:39:00;;;;;;;7.38;4.38;;;23.00;62.80;;;;;;4944620;28;20039;-67
2022/07/20 05:41:26;;;;;;;4.03;3.60;;;23.10;62.40;;;;;;4942698;29;20038;-67
2022/07/20 05:43:52;;;;;;;8.18;4.18;;;23.10;62.40;;;;;;4941776;28;20063;-66
2022/07/20 05:46:18;;;;;;;6.35;4.25;;;23.20;62.30;;;;;;4938779;29;20114;-67
2022/07/20 05:48:44;;;;;;;5.95;4.00;;;23.30;61.40;;;;;;4939013;28;20595;-66
2022/07/20 05:51:09;;;;;;;6.60;4.15;;;23.40;61.40;;;;;;4936440;29;20047;-66
2022/07/20 05:53:35;;;;;;;6.38;4.05;;;23.50;61.20;;;;;;4937393;28;20435;-67
2022/07/20 05:56:01;;;;;;;10.77;4.45;;;23.70;61.10;;;;;;4941509;29;20515;-67
2022/07/20 05:58:27;;;;;;;5.88;4.57;;;23.70;60.70;;;;;;4942677;28;20159;-67
2022/07/20 06:00:52;;;;;;;6.30;3.75;;;23.90;60.70;;;;;;4940266;29;20803;-67
2022/07/20 06:03:18;;;;;;;8.63;4.25;;;24.00;59.80;;;;;;4938733;29;20032;-67
2022/07/20 06:05:44;;;;;;;5.88;4.20;;;24.00;59.50;;;;;;4935758;29;20043;-67
2022/07/20 06:08:10;;;;;;;8.77;4.00;;;24.20;58.80;;;;;;4939449;29;20035;-66
2022/07/20 06:10:36;;;;;;;5.40;4.10;;;24.30;58.80;;;;;;4937883;28;20078;-67
2022/07/20 06:13:03;;;;;;;6.25;4.60;;;24.40;57.10;;;;;;4933499;28;20118;-67
2022/07/20 06:15:29;;;;;;;6.13;4.10;;;24.60;56.80;;;;;;4944188;29;20096;-67
2022/07/20 06:17:55;;;;;;;7.35;3.95;;;24.70;55.70;;;;;;4939753;29;20681;-67
2022/07/20 06:20:22;;;;;;;13.02;5.00;;;24.80;55.50;;;;;;4940394;28;20555;-66
2022/07/20 06:22:49;;;;;;;4.60;4.00;;;25.00;55.10;;;;;;4938197;29;20037;-66
2022/07/20 06:25:16;;;;;;;4.97;4.30;;;25.10;54.30;;;;;;4937093;29;20031;-67
2022/07/20 06:27:43;;;;;;;4.50;3.85;;;25.20;53.60;;;;;;4938171;28;20054;-67
2022/07/20 06:30:11;;;;;;;5.78;3.70;;;25.40;53.30;;;;;;4934284;28;20039;-67
2022/07/20 06:32:38;;;;;;;6.22;4.05;;;25.50;53.60;;;;;;4938886;28;20033;-67
2022/07/20 06:35:04;;;;;;;11.05;4.95;;;25.60;53.30;;;;;;4942414;29;20081;-67
2022/07/20 06:37:30;;;;;;;5.38;4.00;;;25.70;53.30;;;;;;4941969;29;20035;-67
2022/07/20 06:39:56;;;;;;;6.50;4.18;;;25.80;53.50;;;;;;4940492;28;20047;-67
2022/07/20 06:42:21;;;;;;;5.45;3.90;;;25.90;52.60;;;;;;4937667;29;20126;-67
2022/07/20 06:44:49;;;;;;;8.90;3.97;;;26.10;52.00;;;;;;4938447;28;20035;-67
2022/07/20 06:47:15;;;;;;;9.05;4.07;;;26.20;51.60;;;;;;4935731;29;20814;-67
2022/07/20 06:49:41;;;;;;;5.65;3.55;;;26.30;51.40;;;;;;4936283;28;20487;-67
2022/07/20 06:52:07;;;;;;;5.55;3.60;;;26.40;51.80;;;;;;4940099;29;20872;-67
2022/07/20 06:54:33;;;;;;;10.85;4.10;;;26.50;51.70;;;;;;4943182;28;20033;-67
2022/07/20 06:56:59;;;;;;;6.97;3.90;;;26.60;51.80;;;;;;4941279;29;20047;-67
2022/07/20 06:59:25;;;;;;;5.28;3.90;;;26.70;51.80;;;;;;4939199;28;20031;-67
2022/07/20 07:01:51;;;;;;;4.53;3.72;;;26.80;51.70;;;;;;4939014;29;20041;-67
2022/07/20 07:04:17;;;;;;;8.98;3.60;;;26.80;51.10;;;;;;4936673;29;20329;-67
2022/07/20 07:06:43;;;;;;;6.07;4.03;;;27.00;50.80;;;;;;4936956;28;20031;-67
2022/07/20 07:09:09;;;;;;;4.78;3.65;;;27.10;50.40;;;;;;4932923;28;20047;-67
2022/07/20 07:11:36;;;;;;;5.47;3.78;;;27.20;50.40;;;;;;4941497;28;20038;-67
2022/07/20 07:14:02;;;;;;;5.70;4.30;;;27.30;50.80;;;;;;4941433;29;20035;-67
2022/07/20 07:16:29;;;;;;;7.93;3.67;;;27.40;49.80;;;;;;4941493;29;20376;-67
2022/07/20 07:18:54;;;;;;;5.35;3.72;;;27.50;50.00;;;;;;4941621;28;20027;-67
2022/07/20 07:21:20;;;;;;;7.35;3.88;;;27.60;50.10;;;;;;4939993;29;20392;-67
2022/07/20 07:23:49;;;;;;;11.32;3.90;;;27.70;50.10;;;;;;4938720;29;20082;-68
2022/07/20 07:26:19;;;;;;;6.80;3.78;;;27.80;49.20;;;;;;4934758;29;20086;-68
2022/07/20 07:28:46;;;;;;;5.53;4.28;;;27.90;48.60;;;;;;4934137;28;20757;-68
2022/07/20 07:31:12;;;;;;;6.63;3.10;;;28.00;48.40;;;;;;4941994;28;20130;-68
2022/07/20 07:33:38;;;;;;;8.15;3.47;;;28.10;48.10;;;;;;4940550;28;20035;-68
2022/07/20 07:36:04;;;;;;;9.73;3.60;;;28.20;48.20;;;;;;4938395;28;20043;-68
2022/07/20 07:38:30;;;;;;;13.52;3.85;;;28.30;48.30;;;;;;4937134;28;20487;-68
2022/07/20 07:40:56;;;;;;;8.85;3.33;;;28.40;47.90;;;;;;4937065;28;20725;-68
2022/07/20 07:43:22;;;;;;;7.55;3.40;;;28.60;46.90;;;;;;4935468;29;20036;-68
2022/07/20 07:45:48;;;;;;;5.78;3.50;;;28.70;46.60;;;;;;4935409;28;20035;-68
2022/07/20 07:48:13;;;;;;;8.73;3.70;;;28.70;46.50;;;;;;4936832;28;20090;-68
2022/07/20 07:50:41;;;;;;;6.43;3.10;;;28.80;46.40;;;;;;4942037;28;20035;-68
2022/07/20 07:53:07;;;;;;;11.52;4.20;;;29.00;46.80;;;;;;4939632;29;20090;-68
2022/07/20 07:55:34;;;;;;;13.73;3.67;;;29.10;46.00;;;;;;4939165;29;20046;-68
2022/07/20 07:58:00;;;;;;;10.85;3.33;;;29.20;46.10;;;;;;4938099;28;20451;-68
2022/07/20 08:00:26;;;;;;;6.68;3.60;;;29.40;46.00;;;;;;4937447;28;20050;-68
2022/07/20 08:02:51;;;;;;;6.20;2.83;;;29.60;45.70;;;;;;4935475;28;20042;-68
2022/07/20 08:05:17;;;;;;;5.72;2.90;;;29.70;44.90;;;;;;4934674;29;20523;-68
2022/07/20 08:07:43;;;;;;;3.88;2.95;;;29.90;45.10;;;;;;4940048;29;20035;-68
2022/07/20 08:10:09;;;;;;;5.30;3.08;;;30.00;44.60;;;;;;4940234;28;20755;-68
2022/07/20 08:12:36;;;;;;;8.32;3.17;;;30.10;44.70;;;;;;4941823;28;20045;-68
2022/07/20 08:15:04;;;;;;;10.48;3.10;;;30.30;44.20;;;;;;4941629;28;20038;-68
2022/07/20 08:17:30;;;;;;;4.97;3.25;;;30.40;43.00;;;;;;4941274;29;20558;-67
2022/07/20 08:19:56;;;;;;;9.98;3.10;;;30.40;42.80;;;;;;4939189;28;20058;-68
2022/07/20 08:22:21;;;;;;;7.53;3.17;;;30.40;43.20;;;;;;4937374;29;20488;-68
2022/07/20 08:24:47;;;;;;;8.60;3.40;;;30.50;42.90;;;;;;4936472;28;20043;-68
2022/07/20 08:27:13;;;;;;;6.80;3.10;;;30.70;44.10;;;;;;4943076;29;20043;-68
2022/07/20 08:29:38;;;;;;;5.78;2.65;;;30.90;42.70;;;;;;4944353;28;20118;-68
2022/07/20 08:32:05;;;;;;;4.18;3.10;;;30.90;43.00;;;;;;4941480;28;20732;-68
2022/07/20 08:34:31;;;;;;;6.00;3.20;;;31.10;43.20;;;;;;4942369;29;20037;-68
2022/07/20 08:36:57;;;;;;;5.28;3.47;;;31.20;42.50;;;;;;4939863;28;20403;-68
2022/07/20 08:39:22;;;;;;;5.32;2.92;;;31.40;41.60;;;;;;4939042;28;20087;-67
2022/07/20 08:41:48;;;;;;;5.05;2.42;;;31.40;41.80;;;;;;4937602;29;20743;-66
2022/07/20 08:44:14;;;;;;;3.92;2.65;;;31.60;41.50;;;;;;4939824;29;20067;-66
2022/07/20 08:46:43;;;;;;;4.50;3.00;;;31.70;41.20;;;;;;4945320;28;20035;-68
2022/07/20 08:49:09;;;;;;;4.35;2.92;;;31.80;41.00;;;;;;4942935;28;20042;-66
2022/07/20 08:51:34;;;;;;;5.97;2.78;;;32.00;39.70;;;;;;4942534;28;20389;-66
2022/07/20 08:54:00;;;;;;;4.40;2.58;;;32.00;40.00;;;;;;4940373;29;20144;-66
2022/07/20 08:56:27;;;;;;;4.82;2.63;;;32.20;40.80;;;;;;4940317;29;20626;-65
2022/07/20 08:58:52;;;;;;;4.57;2.65;;;32.30;39.50;;;;;;4938567;28;20031;-66
2022/07/20 09:01:19;;;;;;;9.82;2.72;;;32.50;39.20;;;;;;4937040;29;20094;-66
2022/07/20 09:04:10;;;;;;;6.05;2.63;;;32.60;39.00;;;;;;4941423;29;20106;-66
2022/07/20 09:06:45;;;;;;;4.57;2.22;;;32.70;38.00;;;;;;4940288;28;20086;-66
2022/07/20 09:09:11;;;;;;;2.90;2.40;;;32.70;37.30;;;;;;4943817;28;20113;-66
2022/07/20 09:11:36;;;;;;;5.45;2.78;;;32.70;37.40;;;;;;4942119;28;20114;-66
2022/07/20 09:14:02;;;;;;;5.32;2.28;;;32.80;37.90;;;;;;4938495;29;20786;-66
2022/07/20 09:16:42;;;;;;;8.23;2.67;;;32.90;38.30;;;;;;4940464;29;20027;-66
2022/07/20 09:19:08;;;;;;;8.05;2.70;;;33.00;37.70;;;;;;4934545;28;20535;-66
2022/07/20 09:21:34;;;;;;;5.38;2.50;;;33.10;36.70;;;;;;4938492;29;20039;-66
2022/07/20 09:24:05;;;;;;;6.72;2.53;;;33.30;36.70;;;;;;4943662;28;20122;-66
2022/07/20 09:26:32;;;;;;;5.03;2.45;;;33.30;35.20;;;;;;4940869;29;20039;-66
2022/07/20 09:29:00;;;;;;;5.47;2.25;;;33.30;35.30;;;;;;4942184;28;20555;-65
2022/07/20 09:31:33;;;;;;;6.90;2.47;;;33.30;35.40;;;;;;4942426;28;20063;-66
2022/07/20 09:34:14;;;;;;;9.57;2.53;;;33.40;36.40;;;;;;4940730;29;20081;-68
2022/07/20 09:36:42;;;;;;;7.03;2.20;;;33.50;34.50;;;;;;4941180;29;20039;-66
2022/07/20 09:39:10;;;;;;;7.80;2.78;;;33.60;34.50;;;;;;4936933;28;20091;-65
2022/07/20 09:41:39;;;;;;;5.85;2.47;;;33.70;35.20;;;;;;4940986;28;20042;-66
2022/07/20 09:44:06;;;;;;;6.00;2.45;;;33.70;35.70;;;;;;4943663;29;20051;-66
2022/07/20 09:46:34;;;;;;;6.13;3.03;;;33.90;35.10;;;;;;4942919;29;20054;-66
2022/07/20 09:49:11;;;;;;;4.72;2.22;;;34.00;35.00;;;;;;4940810;28;20050;-66
2022/07/20 09:51:38;;;;;;;7.82;2.22;;;34.10;34.30;;;;;;4941207;29;20028;-66
2022/07/20 09:54:08;;;;;;;6.25;2.17;;;34.20;34.10;;;;;;4940414;29;20082;-66
2022/07/20 09:56:36;;;;;;;3.17;2.40;;;34.40;34.20;;;;;;4937495;29;20108;-66
2022/07/20 09:59:04;;;;;;;7.63;2.67;;;34.50;33.70;;;;;;4934580;28;20432;-66
2022/07/20 10:01:35;;;;;;;3.95;2.15;;;34.70;33.50;;;;;;4944243;29;20093;-66
2022/07/20 10:04:04;;;;;;;4.93;2.17;;;34.70;33.00;;;;;;4940408;29;20059;-66
2022/07/20 10:06:30;;;;;;;3.72;2.28;;;34.80;34.10;;;;;;4942764;29;20039;-66
2022/07/20 10:08:56;;;;;;;5.38;2.30;;;34.80;32.80;;;;;;4940407;28;20039;-66
2022/07/20 10:11:24;;;;;;;4.03;2.40;;;34.90;31.60;;;;;;4938287;29;20020;-66
2022/07/20 10:13:52;;;;;;;4.03;2.35;;;34.90;32.70;;;;;;4936752;28;20546;-66
2022/07/20 10:16:37;;;;;;;8.70;2.58;;;35.00;33.70;;;;;;4941091;29;20083;-66
2022/07/20 10:19:04;;;;;;;3.47;2.60;;;35.20;33.20;;;;;;4937276;28;20725;-66
2022/07/20 10:21:47;;;;;;;3.92;2.50;;;35.20;31.80;;;;;;4942901;29;20042;-66
2022/07/20 10:24:14;;;;;;;4.75;2.40;;;35.10;30.80;;;;;;4941327;28;20767;-65
2022/07/20 10:26:41;;;;;;;4.75;2.30;;;35.00;31.40;;;;;;4940787;29;20038;-66
2022/07/20 10:29:07;;;;;;;6.32;2.20;;;35.00;31.40;;;;;;4938033;28;20057;-66
2022/07/20 10:31:49;;;;;;;8.18;2.53;;;35.00;32.10;;;;;;4938711;28;20035;-66
2022/07/20 10:34:39;;;;;;;10.02;2.50;;;35.20;32.50;;;;;;4935371;28;20090;-66
2022/07/20 10:37:24;;;;;;;6.28;2.80;;;35.10;32.10;;;;;;4933418;29;20047;-66
2022/07/20 10:40:08;;;;;;;4.05;2.20;;;35.10;31.80;;;;;;4939281;28;20035;-66
2022/07/20 10:43:05;;;;;;;7.57;2.65;;;35.20;32.70;;;;;;4938923;29;20090;-66
2022/07/20 10:45:33;;;;;;;3.00;2.25;;;35.40;31.30;;;;;;4934711;29;20027;-66
2022/07/20 10:48:16;;;;;;;5.38;2.47;;;35.40;32.00;;;;;;4940415;28;20071;-66
2022/07/20 10:50:52;;;;;;;3.25;2.33;;;35.60;32.00;;;;;;4937862;29;20027;-66
2022/07/20 10:53:18;;;;;;;8.48;2.38;;;35.70;30.80;;;;;;4935010;29;20102;-66
2022/07/20 10:55:58;;;;;;;5.63;2.33;;;35.70;31.10;;;;;;4936640;28;20035;-66
2022/07/20 10:58:25;;;;;;;5.97;2.30;;;35.70;31.70;;;;;;4942634;28;20444;-66
2022/07/20 11:00:57;;;;;;;6.35;2.47;;;35.70;32.10;;;;;;4942007;28;20027;-66
2022/07/20 11:03:29;;;;;;;7.50;2.80;;;35.80;31.60;;;;;;4938501;29;20054;-66
2022/07/20 11:06:23;;;;;;;8.27;2.70;;;35.90;32.00;;;;;;4939229;28;20105;-66
2022/07/20 11:08:57;;;;;;;4.47;2.50;;;36.00;32.10;;;;;;4933215;28;20046;-66
2022/07/20 11:11:25;;;;;;;6.47;2.80;;;36.10;31.30;;;;;;4936340;29;20040;-66
2022/07/20 11:13:52;;;;;;;3.88;2.20;;;36.10;31.20;;;;;;4934190;29;20062;-66
2022/07/20 11:16:21;;;;;;;7.70;2.40;;;36.20;31.70;;;;;;4941136;29;20054;-66
2022/07/20 11:18:48;;;;;;;9.73;2.40;;;36.20;29.90;;;;;;4942557;28;20038;-66
2022/07/20 11:21:14;;;;;;;4.72;2.30;;;36.10;30.30;;;;;;4939837;28;20158;-66
2022/07/20 11:23:49;;;;;;;3.97;2.42;;;36.10;30.60;;;;;;4941814;29;20093;-66
2022/07/20 11:26:17;;;;;;;6.20;2.38;;;36.10;30.50;;;;;;4936299;29;20050;-66
2022/07/20 11:28:45;;;;;;;6.53;2.22;;;36.00;31.10;;;;;;4936897;28;20031;-65
2022/07/20 11:31:11;;;;;;;7.78;2.30;;;36.00;29.80;;;;;;4933994;28;20042;-66
2022/07/20 11:33:41;;;;;;;3.20;2.22;;;35.90;30.30;;;;;;4935430;28;20039;-66
2022/07/20 11:36:22;;;;;;;3.28;2.15;;;36.00;30.50;;;;;;4942026;29;20035;-66
2022/07/20 11:38:53;;;;;;;7.25;2.70;;;36.10;30.50;;;;;;4941627;28;20020;-66
2022/07/20 11:41:31;;;;;;;9.07;2.60;;;36.20;30.10;;;;;;4938848;29;20058;-66
2022/07/20 11:43:59;;;;;;;7.97;2.13;;;36.10;30.30;;;;;;4937104;29;20042;-66
2022/07/20 11:46:25;;;;;;;7.05;2.47;;;36.20;30.70;;;;;;4938667;29;20220;-66
2022/07/20 11:48:54;;;;;;;7.30;2.58;;;36.30;30.00;;;;;;4935554;28;20034;-66
2022/07/20 11:51:20;;;;;;;5.78;2.15;;;36.40;29.80;;;;;;4936044;29;20055;-65
2022/07/20 11:53:46;;;;;;;5.00;2.55;;;36.40;29.00;;;;;;4938942;29;20027;-66
2022/07/20 11:56:14;;;;;;;8.73;2.45;;;36.40;29.70;;;;;;4943500;29;20035;-66
2022/07/20 11:58:42;;;;;;;2.28;2.05;;;36.40;29.90;;;;;;4940501;28;20027;-66
2022/07/20 12:01:11;;;;;;;7.68;2.30;;;36.40;29.90;;;;;;4937539;29;20036;-66
2022/07/20 12:03:46;;;;;;;6.65;2.65;;;36.40;29.40;;;;;;4937705;29;20459;-66
2022/07/20 12:06:14;;;;;;;7.88;2.63;;;36.40;29.80;;;;;;4933605;29;20251;-66
2022/07/20 12:08:41;;;;;;;8.30;2.53;;;36.40;30.00;;;;;;4935353;28;20047;-66
2022/07/20 12:11:08;;;;;;;5.38;2.63;;;36.40;29.90;;;;;;4931646;29;20036;-66
2022/07/20 12:13:49;;;;;;;3.05;2.33;;;36.40;30.60;;;;;;4941724;28;20027;-66
2022/07/20 12:16:17;;;;;;;4.53;2.15;;;36.40;29.80;;;;;;4938984;29;20255;-64
2022/07/20 12:18:50;;;;;;;7.32;2.58;;;36.40;30.00;;;;;;4939445;28;20555;-66
2022/07/20 12:21:25;;;;;;;11.23;2.80;;;36.30;30.00;;;;;;4937042;29;20515;-66
2022/07/20 12:23:55;;;;;;;6.22;2.53;;;36.40;29.90;;;;;;4936772;29;20059;-66
2022/07/20 12:26:32;;;;;;;5.55;2.47;;;36.50;30.10;;;;;;4936151;29;20031;-66
2022/07/20 12:29:20;;;;;;;4.65;2.28;;;36.50;30.00;;;;;;4933465;28;20067;-66
2022/07/20 12:32:07;;;;;;;5.72;2.53;;;36.60;29.60;;;;;;4937221;28;20046;-66
2022/07/20 12:34:52;;;;;;;3.40;2.33;;;36.50;29.30;;;;;;4942062;28;20050;-66
2022/07/20 12:37:20;;;;;;;4.82;2.50;;;36.60;29.90;;;;;;4939397;28;20040;-66
2022/07/20 12:39:48;;;;;;;3.35;2.28;;;36.70;29.90;;;;;;4939621;28;20072;-66
2022/07/20 12:42:19;;;;;;;7.38;2.67;;;36.70;29.70;;;;;;4935681;29;20090;-66
2022/07/20 12:44:46;;;;;;;4.88;2.35;;;36.80;30.00;;;;;;4936503;29;20121;-66
2022/07/20 12:47:14;;;;;;;6.72;2.58;;;36.70;29.70;;;;;;4933671;29;20098;-66
2022/07/20 12:49:40;;;;;;;6.97;2.70;;;36.70;29.80;;;;;;4935455;28;20115;-65
2022/07/20 12:52:06;;;;;;;5.57;2.40;;;36.70;29.60;;;;;;4940620;28;20038;-66
2022/07/20 12:54:32;;;;;;;4.10;2.40;;;36.70;29.80;;;;;;4940942;28;20035;-66
2022/07/20 12:56:58;;;;;;;8.45;2.70;;;36.50;30.20;;;;;;4939558;28;20558;-66
2022/07/20 12:59:24;;;;;;;7.68;2.90;;;36.40;29.50;;;;;;4941517;28;20036;-66
2022/07/20 13:01:50;;;;;;;6.13;2.40;;;36.40;29.70;;;;;;4939862;28;20507;-66
2022/07/20 13:04:18;;;;;;;5.80;2.60;;;36.40;30.20;;;;;;4938108;29;20047;-66